createdAt,value
2023-04-15T00:00:40.158Z,18.52
2023-04-15T00:03:07.180Z,17.60
2023-04-15T00:05:33.950Z,17.42
2023-04-15T00:08:01.270Z,16.70
2023-04-15T00:10:27.979Z,15.90
2023-04-15T00:15:20.736Z,15.57
2023-04-15T00:17:47.171Z,14.10
2023-04-15T00:20:13.516Z,13.00
2023-04-15T00:22:39.824Z,12.45
2023-04-15T00:25:06.314Z,10.43
2023-04-15T00:27:33.147Z,9.77
2023-04-15T00:32:25.740Z,8.60
2023-04-15T00:34:52.720Z,9.13
2023-04-15T00:37:19.092Z,8.70
2023-04-15T00:39:45.563Z,8.02
2023-04-15T00:42:13.340Z,7.70
2023-04-15T00:44:39.775Z,7.63
2023-04-15T00:47:06.487Z,6.88
2023-04-15T00:49:33.104Z,6.88
2023-04-15T00:51:59.434Z,6.80
2023-04-15T00:54:26.600Z,7.05
2023-04-15T00:56:53.028Z,6.90
2023-04-15T00:59:20.137Z,6.35
2023-04-15T01:01:46.958Z,6.07
2023-04-15T01:06:40.219Z,5.72
2023-04-15T01:09:06.604Z,6.32
2023-04-15T01:11:34.266Z,6.32
2023-04-15T01:14:00.958Z,6.43
2023-04-15T01:16:28.712Z,6.20
2023-04-15T01:18:55.650Z,6.90
2023-04-15T01:21:23.216Z,6.50
2023-04-15T01:23:50.844Z,6.75
2023-04-15T01:26:17.549Z,6.60
2023-04-15T01:28:45.596Z,6.60
2023-04-15T01:31:15.431Z,7.07
2023-04-15T01:33:42.342Z,6.55
2023-04-15T01:36:09.967Z,6.55
2023-04-15T01:38:37.064Z,6.90
2023-04-15T01:41:07.995Z,6.18
2023-04-15T01:43:36.078Z,6.82
2023-04-15T01:46:02.724Z,6.60
2023-04-15T01:48:29.083Z,6.80
2023-04-15T01:50:58.964Z,6.80
2023-04-15T01:53:25.714Z,6.57
2023-04-15T01:58:18.747Z,6.90
2023-04-15T02:00:45.445Z,6.88
2023-04-15T02:05:38.069Z,6.20
2023-04-15T02:08:04.681Z,6.50
2023-04-15T02:10:31.068Z,7.13
2023-04-15T02:12:58.328Z,6.15
2023-04-15T02:15:27.762Z,6.28
2023-04-15T02:17:55.360Z,6.68
2023-04-15T02:20:22.411Z,6.50
2023-04-15T02:22:48.980Z,6.43
2023-04-15T02:25:16.987Z,6.90
2023-04-15T02:27:44.354Z,6.57
2023-04-15T02:30:10.871Z,6.55
2023-04-15T02:32:38.079Z,6.57
2023-04-15T02:35:05.640Z,6.63
2023-04-15T02:37:32.039Z,6.78
2023-04-15T02:39:59.611Z,6.82
2023-04-15T02:42:28.696Z,6.65
2023-04-15T02:44:55.453Z,7.05
2023-04-15T02:47:24.588Z,7.30
2023-04-15T02:49:50.952Z,6.22
2023-04-15T02:52:17.338Z,7.63
2023-04-15T02:54:43.646Z,7.00
2023-04-15T02:57:11.617Z,6.75
2023-04-15T02:59:39.319Z,7.47
2023-04-15T03:02:07.840Z,7.22
2023-04-15T03:04:34.423Z,7.13
2023-04-15T03:07:01.760Z,7.32
2023-04-15T03:09:28.159Z,7.55
2023-04-15T03:11:55.332Z,7.10
2023-04-15T03:14:22.499Z,6.88
2023-04-15T03:16:50.513Z,7.20
2023-04-15T03:19:17.594Z,7.22
2023-04-15T03:21:43.945Z,7.57
2023-04-15T03:24:10.644Z,7.63
2023-04-15T03:26:37.039Z,6.80
2023-04-15T03:29:10.194Z,7.22
2023-04-15T03:31:36.671Z,6.90
2023-04-15T03:34:02.997Z,6.35
2023-04-15T03:36:30.305Z,6.90
2023-04-15T03:38:56.706Z,6.90
2023-04-15T03:41:23.093Z,6.13
2023-04-15T03:43:51.970Z,6.90
2023-04-15T03:46:18.533Z,6.63
2023-04-15T03:48:44.938Z,6.85
2023-04-15T03:51:11.632Z,6.97
2023-04-15T03:53:37.926Z,7.13
2023-04-15T03:56:04.429Z,6.78
2023-04-15T03:58:30.714Z,6.90
2023-04-15T04:00:57.062Z,7.07
2023-04-15T04:03:23.814Z,6.95
2023-04-15T04:05:51.213Z,7.35
2023-04-15T04:08:19.415Z,8.00
2023-04-15T04:10:45.915Z,8.13
2023-04-15T04:13:12.218Z,8.38
2023-04-15T04:15:38.561Z,8.48
2023-04-15T04:18:05.021Z,7.15
2023-04-15T04:20:34.006Z,7.10
2023-04-15T04:23:00.355Z,5.70
2023-04-15T04:25:27.326Z,6.53
2023-04-15T04:27:53.724Z,7.00
2023-04-15T04:30:20.046Z,6.63
2023-04-15T04:32:46.345Z,5.90
2023-04-15T04:35:12.766Z,6.72
2023-04-15T04:37:39.081Z,6.90
2023-04-15T04:40:05.793Z,7.65
2023-04-15T04:42:32.147Z,6.78
2023-04-15T04:44:58.516Z,7.45
2023-04-15T04:47:24.924Z,7.57
2023-04-15T04:49:51.241Z,6.97
2023-04-15T04:52:17.621Z,8.13
2023-04-15T04:54:43.931Z,6.80
2023-04-15T04:57:10.510Z,7.20
2023-04-15T04:59:37.020Z,8.15
2023-04-15T05:02:03.782Z,8.10
2023-04-15T05:06:59.227Z,7.43
2023-04-15T05:09:25.520Z,8.20
2023-04-15T05:11:51.838Z,7.22
2023-04-15T05:14:18.210Z,7.03
2023-04-15T05:16:44.613Z,7.55
2023-04-15T05:19:11.074Z,7.35
2023-04-15T05:21:39.327Z,8.07
2023-04-15T05:24:06.301Z,7.82
2023-04-15T05:26:32.671Z,8.27
2023-04-15T05:28:59.026Z,9.60
2023-04-15T05:31:25.656Z,7.95
2023-04-15T05:33:52.116Z,8.20
2023-04-15T05:36:18.477Z,7.95
2023-04-15T05:38:44.858Z,8.20
2023-04-15T05:41:11.335Z,8.40
2023-04-15T05:43:37.673Z,8.38
2023-04-15T05:46:04.085Z,8.45
2023-04-15T05:48:30.516Z,8.48
2023-04-15T05:50:56.829Z,8.43
2023-04-15T05:53:23.237Z,8.40
2023-04-15T05:55:49.517Z,8.38
2023-04-15T05:58:15.824Z,8.43
2023-04-15T06:00:42.175Z,9.05
2023-04-15T06:03:08.580Z,9.10
2023-04-15T06:05:34.928Z,8.85
2023-04-15T06:08:01.487Z,8.48
2023-04-15T06:10:27.889Z,8.57
2023-04-15T06:12:54.365Z,8.35
2023-04-15T06:15:20.768Z,9.63
2023-04-15T06:17:47.136Z,9.13
2023-04-15T06:20:13.438Z,8.55
2023-04-15T06:22:39.991Z,8.95
2023-04-15T06:25:08.127Z,8.75
2023-04-15T06:27:34.507Z,8.50
2023-04-15T06:30:01.318Z,8.90
2023-04-15T06:34:54.119Z,8.50
2023-04-15T06:37:20.664Z,7.45
2023-04-15T06:39:47.133Z,8.15
2023-04-15T06:42:13.761Z,8.07
2023-04-15T06:44:40.174Z,8.40
2023-04-15T06:47:06.617Z,8.68
2023-04-15T06:49:33.670Z,7.95
2023-04-15T06:52:00.659Z,8.20
2023-04-15T06:54:27.334Z,8.32
2023-04-15T06:59:20.056Z,7.65
2023-04-15T07:01:46.483Z,8.40
2023-04-15T07:04:13.489Z,8.05
2023-04-15T07:06:39.844Z,8.43
2023-04-15T07:09:06.262Z,8.88
2023-04-15T07:11:32.623Z,9.63
2023-04-15T07:13:59.045Z,8.90
2023-04-15T07:16:26.633Z,8.70
2023-04-15T07:18:55.834Z,9.20
2023-04-15T07:21:22.212Z,8.95
2023-04-15T07:23:48.583Z,8.88
2023-04-15T07:26:14.923Z,8.80
2023-04-15T07:28:41.550Z,8.57
2023-04-15T07:31:07.919Z,8.55
2023-04-15T07:33:34.353Z,8.32
2023-04-15T07:36:00.826Z,8.25
2023-04-15T07:38:27.276Z,8.18
2023-04-15T07:40:54.250Z,8.35
2023-04-15T07:43:45.966Z,7.55
2023-04-15T07:46:12.699Z,7.50
2023-04-15T07:48:39.057Z,7.90
2023-04-15T07:51:05.919Z,7.75
2023-04-15T07:53:33.168Z,7.32
2023-04-15T07:55:59.713Z,7.28
2023-04-15T07:58:26.196Z,6.18
2023-04-15T08:00:52.797Z,6.43
2023-04-15T08:05:47.309Z,5.65
2023-04-15T08:08:14.036Z,5.57
2023-04-15T08:18:01.083Z,5.38
2023-04-15T08:20:27.621Z,5.93
2023-04-15T08:22:53.971Z,5.00
2023-04-15T08:25:20.592Z,5.30
2023-04-15T08:32:39.768Z,4.40
2023-04-15T08:35:06.426Z,4.38
2023-04-15T08:39:59.112Z,3.80
2023-04-15T08:42:30.340Z,3.83
2023-04-15T08:44:58.121Z,4.10
2023-04-15T08:47:27.240Z,3.50
2023-04-15T08:49:55.308Z,3.70
2023-04-15T08:52:22.519Z,3.70
2023-04-15T08:54:48.880Z,3.70
2023-04-15T08:57:15.460Z,3.83
2023-04-15T08:59:42.858Z,3.28
2023-04-15T09:02:09.264Z,3.25
2023-04-15T09:04:35.665Z,3.70
2023-04-15T09:07:02.150Z,3.50
2023-04-15T09:09:29.094Z,3.45
2023-04-15T09:11:55.855Z,3.47
2023-04-15T09:14:22.788Z,3.58
2023-04-15T09:16:59.111Z,3.95
2023-04-15T09:19:25.766Z,4.35
2023-04-15T09:24:18.569Z,4.40
2023-04-15T09:29:13.566Z,4.32
2023-04-15T09:31:40.653Z,4.43
2023-04-15T09:34:07.236Z,3.92
2023-04-15T09:39:00.477Z,3.95
2023-04-15T09:46:19.545Z,3.67
2023-04-15T09:51:12.552Z,3.60
2023-04-15T09:53:38.935Z,3.58
2023-04-15T09:56:07.868Z,3.50
2023-04-15T09:58:35.330Z,3.15
2023-04-15T10:01:04.318Z,4.00
2023-04-15T10:03:31.806Z,3.55
2023-04-15T10:05:59.396Z,3.83
2023-04-15T10:08:27.080Z,4.10
2023-04-15T10:10:53.885Z,3.50
2023-04-15T10:13:28.586Z,3.47
2023-04-15T10:16:02.430Z,3.25
2023-04-15T10:18:30.531Z,2.97
2023-04-15T10:20:57.055Z,3.20
2023-04-15T10:25:52.011Z,3.20
2023-04-15T10:28:19.520Z,3.05
2023-04-15T10:30:47.929Z,2.65
2023-04-15T10:33:14.382Z,2.80
2023-04-15T10:35:40.803Z,3.30
2023-04-15T10:38:25.995Z,3.20
2023-04-15T10:40:52.453Z,3.50
2023-04-15T10:43:26.328Z,3.38
2023-04-15T10:45:53.752Z,3.13
2023-04-15T10:48:20.492Z,3.50
2023-04-15T10:50:56.981Z,3.25
2023-04-15T10:53:29.976Z,3.08
2023-04-15T10:55:57.266Z,2.97
2023-04-15T10:58:24.989Z,3.20
2023-04-15T11:00:54.818Z,2.95
2023-04-15T11:03:37.897Z,2.95
2023-04-15T11:06:04.783Z,2.80
2023-04-15T11:08:50.117Z,2.55
2023-04-15T11:11:16.474Z,2.63
2023-04-15T11:13:50.211Z,2.58
2023-04-15T11:16:17.006Z,2.47
2023-04-15T11:18:53.105Z,2.40
2023-04-15T11:21:19.773Z,2.38
2023-04-15T11:23:49.172Z,2.47
2023-04-15T11:26:15.750Z,2.42
2023-04-15T11:28:43.391Z,3.28
2023-04-15T11:31:16.259Z,2.20
2023-04-15T11:34:03.106Z,2.22
2023-04-15T11:36:32.392Z,2.30
2023-04-15T11:38:59.673Z,2.22
2023-04-15T11:41:27.502Z,2.70
2023-04-15T11:43:53.903Z,2.28
2023-04-15T11:46:28.558Z,2.13
2023-04-15T11:48:54.926Z,2.53
2023-04-15T11:53:55.890Z,2.30
2023-04-15T11:56:26.215Z,2.53
2023-04-15T11:58:53.762Z,2.42
2023-04-15T12:01:20.367Z,2.40
2023-04-15T12:03:49.412Z,2.20
2023-04-15T12:06:19.123Z,2.50
2023-04-15T12:09:01.884Z,2.30
2023-04-15T12:11:32.529Z,2.60
2023-04-15T12:14:17.927Z,2.22
2023-04-15T12:16:48.583Z,2.10
2023-04-15T12:19:17.900Z,2.20
2023-04-15T12:21:45.658Z,2.30
2023-04-15T12:24:15.370Z,2.10
2023-04-15T12:26:46.176Z,1.90
2023-04-15T12:29:13.197Z,1.85
2023-04-15T12:31:50.809Z,1.77
2023-04-15T12:34:17.424Z,1.77
2023-04-15T12:36:43.777Z,1.42
2023-04-15T12:41:36.802Z,1.80
2023-04-15T12:46:30.641Z,2.13
2023-04-15T12:48:57.008Z,1.85
2023-04-15T12:53:51.629Z,2.03
2023-04-15T12:56:18.151Z,1.80
2023-04-15T13:01:11.319Z,1.73
2023-04-15T13:03:37.845Z,2.00
2023-04-15T13:06:05.106Z,1.52
2023-04-15T13:08:31.985Z,1.65
2023-04-15T13:10:58.433Z,1.77
2023-04-15T13:13:24.832Z,1.50
2023-04-15T13:18:23.714Z,1.77
2023-04-15T13:20:51.200Z,1.70
2023-04-15T13:23:17.788Z,1.88
2023-04-15T13:25:44.127Z,1.75
2023-04-15T13:28:11.259Z,1.70
2023-04-15T13:30:38.451Z,1.70
2023-04-15T13:33:05.121Z,1.85
2023-04-15T13:35:32.519Z,1.73
2023-04-15T13:37:58.904Z,1.70
2023-04-15T13:40:25.332Z,1.67
2023-04-15T13:45:19.439Z,1.65
2023-04-15T13:47:45.941Z,1.63
2023-04-15T13:52:38.780Z,1.40
2023-04-15T13:55:08.810Z,1.45
2023-04-15T13:57:47.441Z,1.60
2023-04-15T14:00:14.831Z,1.30
2023-04-15T14:02:42.268Z,1.55
2023-04-15T14:05:09.150Z,1.63
2023-04-15T14:07:35.884Z,1.45
2023-04-15T14:10:02.282Z,1.63
2023-04-15T14:12:28.609Z,1.30
2023-04-15T14:14:55.009Z,1.23
2023-04-15T14:17:21.577Z,1.30
2023-04-15T14:24:40.480Z,1.38
2023-04-15T14:27:08.545Z,1.40
2023-04-15T14:29:34.891Z,1.30
2023-04-15T14:32:11.112Z,1.50
2023-04-15T14:34:38.793Z,1.77
2023-04-15T14:37:05.150Z,1.90
2023-04-15T14:39:31.508Z,1.70
2023-04-15T14:41:57.869Z,1.83
2023-04-15T14:44:24.241Z,1.98
2023-04-15T14:46:51.127Z,1.73
2023-04-15T14:49:17.632Z,1.50
2023-04-15T14:51:44.092Z,1.30
2023-04-15T14:56:37.070Z,1.30
2023-04-15T14:59:03.608Z,1.60
2023-04-15T15:01:30.291Z,1.25
2023-04-15T15:28:19.631Z,1.35
2023-04-15T15:30:45.918Z,1.42
2023-04-15T15:33:12.261Z,1.40
2023-04-15T15:35:38.954Z,1.48
2023-04-15T15:38:06.334Z,1.33
2023-04-15T15:40:32.701Z,1.38
2023-04-15T15:42:59.026Z,1.20
2023-04-15T15:45:25.483Z,1.75
2023-04-15T15:47:52.207Z,1.60
2023-04-15T15:50:18.569Z,1.60
2023-04-15T15:52:45.036Z,1.33
2023-04-15T15:55:11.410Z,1.40
2023-04-15T15:57:37.705Z,1.60
2023-04-15T16:00:12.171Z,1.25
2023-04-15T16:03:05.109Z,1.23
2023-04-15T16:05:25.955Z,1.60
2023-04-15T16:07:52.428Z,1.30
2023-04-15T16:10:18.720Z,1.48
2023-04-15T16:12:45.137Z,1.30
2023-04-15T16:15:11.984Z,1.42
2023-04-15T16:17:38.500Z,1.27
2023-04-15T16:22:32.577Z,1.35
2023-04-15T16:24:59.261Z,1.50
2023-04-15T16:29:52.157Z,1.63
2023-04-15T16:32:18.530Z,1.58
2023-04-15T16:34:44.963Z,1.30
2023-04-15T16:37:11.374Z,1.60
2023-04-15T16:39:37.842Z,1.45
2023-04-15T16:42:04.225Z,1.40
2023-04-15T16:44:30.682Z,2.40
2023-04-15T16:46:56.995Z,1.10
2023-04-15T16:49:23.403Z,1.88
2023-04-15T16:51:54.615Z,1.50
2023-04-15T16:54:21.012Z,1.33
2023-04-15T16:56:47.281Z,1.33
2023-04-15T16:59:13.600Z,1.15
2023-04-15T17:01:40.006Z,1.33
2023-04-15T17:04:07.182Z,1.20
2023-04-15T17:06:33.952Z,1.50
2023-04-15T17:09:00.554Z,2.08
2023-04-15T17:11:27.642Z,1.67
2023-04-15T17:13:54.197Z,1.50
2023-04-15T17:18:47.454Z,1.80
2023-04-15T17:21:15.211Z,2.30
2023-04-15T17:23:41.655Z,1.10
2023-04-15T17:26:08.206Z,1.33
2023-04-15T17:28:34.605Z,2.00
2023-04-15T17:31:04.369Z,1.55
2023-04-15T17:34:01.489Z,1.67
2023-04-15T17:36:21.804Z,3.80
2023-04-15T17:38:48.264Z,2.78
2023-04-15T17:41:14.580Z,2.53
2023-04-15T17:43:41.023Z,1.83
2023-04-15T17:46:07.844Z,2.15
2023-04-15T17:48:34.684Z,2.20
2023-04-15T17:51:01.124Z,2.10
2023-04-15T17:53:27.614Z,1.95
2023-04-15T17:55:54.312Z,1.98
2023-04-15T18:00:47.083Z,2.50
2023-04-15T18:03:13.628Z,1.70
2023-04-15T18:08:08.923Z,2.03
2023-04-15T18:10:35.404Z,1.55
2023-04-15T18:13:03.259Z,1.83
2023-04-15T18:15:33.197Z,1.90
2023-04-15T18:17:59.778Z,1.63
2023-04-15T18:20:26.125Z,1.63
2023-04-15T18:22:52.663Z,1.42
2023-04-15T18:25:19.016Z,1.30
2023-04-15T18:27:45.603Z,1.27
2023-04-15T18:30:15.273Z,1.00
2023-04-15T18:32:41.729Z,1.50
2023-04-15T18:35:08.600Z,1.58
2023-04-15T18:37:35.350Z,1.80
2023-04-15T18:40:01.828Z,1.42
2023-04-15T18:42:28.262Z,1.23
2023-04-15T18:44:54.941Z,2.88
2023-04-15T18:49:47.652Z,2.05
2023-04-15T18:52:14.051Z,1.88
2023-04-15T18:54:40.633Z,1.52
2023-04-15T18:57:07.047Z,1.40
2023-04-15T18:59:34.481Z,1.10
2023-04-15T19:02:02.048Z,1.30
2023-04-15T19:04:31.647Z,1.50
2023-04-15T19:06:59.192Z,1.00
2023-04-15T19:09:26.081Z,1.60
2023-04-15T19:11:52.653Z,1.50
2023-04-15T19:14:19.156Z,1.30
2023-04-15T19:16:45.651Z,1.20
2023-04-15T19:19:14.450Z,1.50
2023-04-15T19:21:41.261Z,1.30
2023-04-15T19:26:34.106Z,1.10
2023-04-15T19:29:00.486Z,1.23
2023-04-15T19:31:27.054Z,1.80
2023-04-15T19:33:53.730Z,1.30
2023-04-15T19:36:20.254Z,1.55
2023-04-15T19:38:46.654Z,1.38
2023-04-15T19:41:13.168Z,1.30
2023-04-15T19:43:39.568Z,2.00
2023-04-15T19:46:06.464Z,2.00
2023-04-15T19:48:32.953Z,1.50
2023-04-15T19:51:00.515Z,1.33
2023-04-15T19:53:27.069Z,1.30
2023-04-15T19:55:53.442Z,1.30
2023-04-15T19:58:19.876Z,1.30
2023-04-15T20:00:46.309Z,1.30
2023-04-15T20:03:12.786Z,1.67
2023-04-15T20:05:39.268Z,1.70
2023-04-15T20:08:05.659Z,1.63
2023-04-15T20:10:32.234Z,1.27
2023-04-15T20:12:58.735Z,1.90
2023-04-15T20:15:25.305Z,1.50
2023-04-15T20:17:51.829Z,1.92
2023-04-15T20:20:18.579Z,1.80
2023-04-15T20:25:11.467Z,1.63
2023-04-15T20:27:37.993Z,1.60
2023-04-15T20:30:04.994Z,1.40
2023-04-15T20:32:35.265Z,1.55
2023-04-15T20:35:03.103Z,1.40
2023-04-15T20:37:30.753Z,1.60
2023-04-15T20:39:57.142Z,1.55
2023-04-15T20:42:23.459Z,2.17
2023-04-15T20:44:49.834Z,1.63
2023-04-15T20:47:16.532Z,1.58
2023-04-15T20:49:43.049Z,1.83
2023-04-15T20:52:09.854Z,1.80
2023-04-15T20:57:02.560Z,1.70
2023-04-15T20:59:28.991Z,2.33
2023-04-15T21:01:57.025Z,1.55
2023-04-15T21:04:24.408Z,1.73
2023-04-15T21:06:52.048Z,2.08
2023-04-15T21:09:18.767Z,1.70
2023-04-15T21:14:26.708Z,1.90
2023-04-15T21:16:53.055Z,1.88
2023-04-15T21:19:19.402Z,1.92
2023-04-15T21:21:46.009Z,1.83
2023-04-15T21:24:12.371Z,1.90
2023-04-15T21:26:38.777Z,1.60
2023-04-15T21:29:06.601Z,1.67
2023-04-15T21:31:34.435Z,1.60
2023-04-15T21:34:00.767Z,1.98
2023-04-15T21:36:27.968Z,3.53
2023-04-15T21:38:55.328Z,1.70
2023-04-15T21:41:21.712Z,1.58
2023-04-15T21:43:48.128Z,1.85
2023-04-15T21:46:23.537Z,1.70
2023-04-15T21:48:51.499Z,1.70
2023-04-15T21:53:44.209Z,1.80
2023-04-15T21:56:10.863Z,1.40
2023-04-15T21:58:37.298Z,1.65
2023-04-15T22:01:04.310Z,1.80
2023-04-15T22:03:33.421Z,1.90
2023-04-15T22:06:00.575Z,1.75
2023-04-15T22:08:27.105Z,1.73
2023-04-15T22:10:53.834Z,1.80
2023-04-15T22:18:13.221Z,1.70
2023-04-15T22:20:39.932Z,1.85
2023-04-15T22:25:36.946Z,1.55
2023-04-15T22:28:06.678Z,2.00
2023-04-15T22:30:34.114Z,1.70
2023-04-15T22:33:01.228Z,2.03
2023-04-15T22:35:27.568Z,2.03
2023-04-15T22:37:53.943Z,2.25
2023-04-15T22:40:20.444Z,2.20
2023-04-15T22:42:46.753Z,2.38
2023-04-15T22:45:13.115Z,1.70
2023-04-15T22:47:39.461Z,2.30
2023-04-15T22:50:06.289Z,2.58
2023-04-15T22:52:32.664Z,2.75
2023-04-15T22:54:59.307Z,3.47
2023-04-15T22:59:54.243Z,2.72
2023-04-15T23:02:20.662Z,2.65
2023-04-15T23:04:47.163Z,3.17
2023-04-15T23:07:13.625Z,2.70
2023-04-15T23:09:40.246Z,3.33
2023-04-15T23:12:06.777Z,2.88
2023-04-15T23:14:33.246Z,2.50
2023-04-15T23:16:59.619Z,2.40
2023-04-15T23:19:25.903Z,2.70
2023-04-15T23:21:52.756Z,2.25
2023-04-15T23:24:19.115Z,2.70
2023-04-15T23:26:45.562Z,2.90
2023-04-15T23:29:12.084Z,2.78
2023-04-15T23:31:38.589Z,2.45
2023-04-15T23:34:04.985Z,2.83
2023-04-15T23:36:31.894Z,2.97
2023-04-15T23:38:58.267Z,2.90
2023-04-15T23:41:24.620Z,2.63
2023-04-15T23:43:50.920Z,2.78
2023-04-15T23:46:17.399Z,3.00
2023-04-15T23:48:43.777Z,2.85
2023-04-15T23:51:10.206Z,2.65
2023-04-15T23:53:36.663Z,3.00
2023-04-15T23:56:03.268Z,2.78
2023-04-15T23:58:29.727Z,3.28
